sensor_id;sensor_type;location;lat;lon;timestamp;temperature;humidity
27858;DHT22;16852;51.446;6.528;2023-07-31T00:00:05;17.50;99.90
27858;DHT22;16852;51.446;6.528;2023-07-31T00:02:06;17.50;99.90
27858;DHT22;16852;51.446;6.528;2023-07-31T00:04:06;17.60;99.90
27858;DHT22;16852;51.446;6.528;2023-07-31T00:06:07;17.50;99.90
27858;DHT22;16852;51.446;6.528;2023-07-31T00:08:07;17.60;99.90
27858;DHT22;16852;51.446;6.528;2023-07-31T00:10:08;17.50;99.90
27858;DHT22;16852;51.446;6.528;2023-07-31T00:12:09;17.50;99.90
27858;DHT22;16852;51.446;6.528;2023-07-31T00:14:10;17.50;99.90
27858;DHT22;16852;51.446;6.528;2023-07-31T00:16:10;17.60;99.90
27858;DHT22;16852;51.446;6.528;2023-07-31T00:18:11;17.60;99.90
27858;DHT22;16852;51.446;6.528;2023-07-31T00:20:11;17.50;99.90
27858;DHT22;16852;51.446;6.528;2023-07-31T00:22:12;17.50;99.90
27858;DHT22;16852;51.446;6.528;2023-07-31T00:24:13;17.50;99.90
27858;DHT22;16852;51.446;6.528;2023-07-31T00:26:13;17.50;99.90
27858;DHT22;16852;51.446;6.528;2023-07-31T00:28:14;17.50;99.90
27858;DHT22;16852;51.446;6.528;2023-07-31T00:30:14;17.50;99.90
27858;DHT22;16852;51.446;6.528;2023-07-31T00:32:15;17.50;99.90
27858;DHT22;16852;51.446;6.528;2023-07-31T00:34:16;17.50;99.90
27858;DHT22;16852;51.446;6.528;2023-07-31T00:36:16;17.50;99.90
27858;DHT22;16852;51.446;6.528;2023-07-31T00:38:18;17.60;99.90
27858;DHT22;16852;51.446;6.528;2023-07-31T00:40:18;17.50;99.90
27858;DHT22;16852;51.446;6.528;2023-07-31T00:42:19;17.50;99.90
27858;DHT22;16852;51.446;6.528;2023-07-31T00:44:20;17.50;99.90
27858;DHT22;16852;51.446;6.528;2023-07-31T00:46:21;17.50;99.90
27858;DHT22;16852;51.446;6.528;2023-07-31T00:48:21;17.50;99.90
27858;DHT22;16852;51.446;6.528;2023-07-31T00:50:24;17.60;99.90
27858;DHT22;16852;51.446;6.528;2023-07-31T00:52:25;17.60;99.90
27858;DHT22;16852;51.446;6.528;2023-07-31T00:54:26;17.60;99.90
27858;DHT22;16852;51.446;6.528;2023-07-31T00:56:27;17.60;99.90
27858;DHT22;16852;51.446;6.528;2023-07-31T00:58:28;17.60;99.90
27858;DHT22;16852;51.446;6.528;2023-07-31T01:00:29;17.60;99.90
27858;DHT22;16852;51.446;6.528;2023-07-31T01:02:29;17.60;99.90
27858;DHT22;16852;51.446;6.528;2023-07-31T01:04:30;17.60;99.90
27858;DHT22;16852;51.446;6.528;2023-07-31T01:06:40;17.60;99.90
27858;DHT22;16852;51.446;6.528;2023-07-31T01:11:17;17.60;99.90
27858;DHT22;16852;51.446;6.528;2023-07-31T01:13:20;17.60;99.90
27858;DHT22;16852;51.446;6.528;2023-07-31T01:15:21;17.60;99.90
27858;DHT22;16852;51.446;6.528;2023-07-31T01:17:22;17.70;99.90
27858;DHT22;16852;51.446;6.528;2023-07-31T01:19:24;17.60;99.90
27858;DHT22;16852;51.446;6.528;2023-07-31T01:23:56;17.60;99.90
27858;DHT22;16852;51.446;6.528;2023-07-31T01:26:12;17.60;99.90
27858;DHT22;16852;51.446;6.528;2023-07-31T01:28:39;17.60;99.90
27858;DHT22;16852;51.446;6.528;2023-07-31T01:30:47;17.60;99.90
27858;DHT22;16852;51.446;6.528;2023-07-31T01:32:49;17.60;99.90
27858;DHT22;16852;51.446;6.528;2023-07-31T01:34:51;17.60;99.90
27858;DHT22;16852;51.446;6.528;2023-07-31T01:36:52;17.50;99.90
27858;DHT22;16852;51.446;6.528;2023-07-31T01:38:58;17.60;99.90
27858;DHT22;16852;51.446;6.528;2023-07-31T01:40:58;17.60;99.90
27858;DHT22;16852;51.446;6.528;2023-07-31T01:42:59;17.60;99.90
27858;DHT22;16852;51.446;6.528;2023-07-31T01:44:59;17.60;99.90
27858;DHT22;16852;51.446;6.528;2023-07-31T01:47:00;17.50;99.90
27858;DHT22;16852;51.446;6.528;2023-07-31T01:49:01;17.50;99.90
27858;DHT22;16852;51.446;6.528;2023-07-31T01:51:01;17.50;99.90
27858;DHT22;16852;51.446;6.528;2023-07-31T01:53:02;17.50;99.90
27858;DHT22;16852;51.446;6.528;2023-07-31T01:55:03;17.50;99.90
27858;DHT22;16852;51.446;6.528;2023-07-31T01:57:04;17.50;99.90
27858;DHT22;16852;51.446;6.528;2023-07-31T01:59:05;17.50;99.90
27858;DHT22;16852;51.446;6.528;2023-07-31T02:01:05;17.50;99.90
27858;DHT22;16852;51.446;6.528;2023-07-31T02:03:06;17.50;99.90
27858;DHT22;16852;51.446;6.528;2023-07-31T02:05:07;17.50;99.90
27858;DHT22;16852;51.446;6.528;2023-07-31T02:07:07;17.50;99.90
27858;DHT22;16852;51.446;6.528;2023-07-31T02:09:08;17.50;99.90
27858;DHT22;16852;51.446;6.528;2023-07-31T02:11:09;17.50;99.90
27858;DHT22;16852;51.446;6.528;2023-07-31T02:13:09;17.50;99.90
27858;DHT22;16852;51.446;6.528;2023-07-31T02:15:10;17.50;99.90
27858;DHT22;16852;51.446;6.528;2023-07-31T02:17:11;17.60;99.90
27858;DHT22;16852;51.446;6.528;2023-07-31T02:19:11;17.50;99.90
27858;DHT22;16852;51.446;6.528;2023-07-31T02:21:12;17.50;99.90
27858;DHT22;16852;51.446;6.528;2023-07-31T02:23:12;17.50;99.90
27858;DHT22;16852;51.446;6.528;2023-07-31T02:25:13;17.50;99.90
27858;DHT22;16852;51.446;6.528;2023-07-31T02:27:14;17.50;99.90
27858;DHT22;16852;51.446;6.528;2023-07-31T02:29:15;17.50;99.90
27858;DHT22;16852;51.446;6.528;2023-07-31T02:31:15;17.50;99.90
27858;DHT22;16852;51.446;6.528;2023-07-31T02:33:16;17.50;99.90
27858;DHT22;16852;51.446;6.528;2023-07-31T02:35:16;17.50;99.90
27858;DHT22;16852;51.446;6.528;2023-07-31T02:37:18;17.50;99.90
27858;DHT22;16852;51.446;6.528;2023-07-31T02:39:19;17.50;99.90
27858;DHT22;16852;51.446;6.528;2023-07-31T02:41:19;17.50;99.90
27858;DHT22;16852;51.446;6.528;2023-07-31T02:43:20;17.50;99.90
27858;DHT22;16852;51.446;6.528;2023-07-31T02:45:21;17.40;99.90
27858;DHT22;16852;51.446;6.528;2023-07-31T02:47:22;17.40;99.90
27858;DHT22;16852;51.446;6.528;2023-07-31T02:49:23;17.40;99.90
27858;DHT22;16852;51.446;6.528;2023-07-31T02:51:23;17.50;99.90
27858;DHT22;16852;51.446;6.528;2023-07-31T02:53:24;17.50;99.90
27858;DHT22;16852;51.446;6.528;2023-07-31T02:55:24;17.50;99.90
27858;DHT22;16852;51.446;6.528;2023-07-31T02:57:25;17.40;99.90
27858;DHT22;16852;51.446;6.528;2023-07-31T02:59:28;17.50;99.90
27858;DHT22;16852;51.446;6.528;2023-07-31T03:01:28;17.50;99.90
27858;DHT22;16852;51.446;6.528;2023-07-31T03:03:29;17.50;99.90
27858;DHT22;16852;51.446;6.528;2023-07-31T03:05:29;17.50;99.90
27858;DHT22;16852;51.446;6.528;2023-07-31T03:07:30;17.50;99.90
27858;DHT22;16852;51.446;6.528;2023-07-31T03:09:31;17.50;99.90
27858;DHT22;16852;51.446;6.528;2023-07-31T03:11:31;17.60;99.90
27858;DHT22;16852;51.446;6.528;2023-07-31T03:13:32;17.50;99.90
27858;DHT22;16852;51.446;6.528;2023-07-31T03:15:32;17.60;99.90
27858;DHT22;16852;51.446;6.528;2023-07-31T03:17:33;17.60;99.90
27858;DHT22;16852;51.446;6.528;2023-07-31T03:19:33;17.50;99.90
27858;DHT22;16852;51.446;6.528;2023-07-31T03:21:34;17.60;99.90
27858;DHT22;16852;51.446;6.528;2023-07-31T03:23:35;17.60;99.90
27858;DHT22;16852;51.446;6.528;2023-07-31T03:25:35;17.60;99.90
27858;DHT22;16852;51.446;6.528;2023-07-31T03:27:36;17.60;99.90
27858;DHT22;16852;51.446;6.528;2023-07-31T03:29:37;17.60;99.90
27858;DHT22;16852;51.446;6.528;2023-07-31T03:31:37;17.60;99.90
27858;DHT22;16852;51.446;6.528;2023-07-31T03:33:38;17.60;99.90
27858;DHT22;16852;51.446;6.528;2023-07-31T03:35:39;17.60;99.90
27858;DHT22;16852;51.446;6.528;2023-07-31T03:37:39;17.60;99.90
27858;DHT22;16852;51.446;6.528;2023-07-31T03:39:40;17.60;99.90
27858;DHT22;16852;51.446;6.528;2023-07-31T03:41:40;17.60;99.90
27858;DHT22;16852;51.446;6.528;2023-07-31T03:43:41;17.60;99.90
27858;DHT22;16852;51.446;6.528;2023-07-31T03:45:42;17.70;99.90
27858;DHT22;16852;51.446;6.528;2023-07-31T03:47:42;17.70;99.90
27858;DHT22;16852;51.446;6.528;2023-07-31T03:49:43;17.70;99.90
27858;DHT22;16852;51.446;6.528;2023-07-31T03:51:44;17.70;99.90
27858;DHT22;16852;51.446;6.528;2023-07-31T03:53:45;17.70;99.90
27858;DHT22;16852;51.446;6.528;2023-07-31T03:55:45;17.70;99.90
27858;DHT22;16852;51.446;6.528;2023-07-31T03:57:46;17.70;99.90
27858;DHT22;16852;51.446;6.528;2023-07-31T03:59:47;17.80;99.90
27858;DHT22;16852;51.446;6.528;2023-07-31T04:01:47;17.70;99.90
27858;DHT22;16852;51.446;6.528;2023-07-31T04:03:48;17.80;99.90
27858;DHT22;16852;51.446;6.528;2023-07-31T04:05:48;17.80;99.90
27858;DHT22;16852;51.446;6.528;2023-07-31T04:07:49;17.80;99.90
27858;DHT22;16852;51.446;6.528;2023-07-31T04:09:49;17.80;99.90
27858;DHT22;16852;51.446;6.528;2023-07-31T04:11:50;17.80;99.90
27858;DHT22;16852;51.446;6.528;2023-07-31T04:13:51;17.80;99.90
27858;DHT22;16852;51.446;6.528;2023-07-31T04:15:51;17.80;99.90
27858;DHT22;16852;51.446;6.528;2023-07-31T04:17:52;17.80;99.90
27858;DHT22;16852;51.446;6.528;2023-07-31T04:19:52;17.80;99.90
27858;DHT22;16852;51.446;6.528;2023-07-31T04:21:53;17.80;99.90
27858;DHT22;16852;51.446;6.528;2023-07-31T04:23:54;17.90;99.90
27858;DHT22;16852;51.446;6.528;2023-07-31T04:25:56;17.90;99.90
27858;DHT22;16852;51.446;6.528;2023-07-31T04:27:57;17.90;99.90
27858;DHT22;16852;51.446;6.528;2023-07-31T04:29:57;17.90;99.90
27858;DHT22;16852;51.446;6.528;2023-07-31T04:31:58;17.90;99.90
27858;DHT22;16852;51.446;6.528;2023-07-31T04:33:58;18.00;99.90
27858;DHT22;16852;51.446;6.528;2023-07-31T04:35:59;18.00;99.90
27858;DHT22;16852;51.446;6.528;2023-07-31T04:38:00;17.90;99.90
27858;DHT22;16852;51.446;6.528;2023-07-31T04:40:00;18.00;99.90
27858;DHT22;16852;51.446;6.528;2023-07-31T04:42:01;17.90;99.90
27858;DHT22;16852;51.446;6.528;2023-07-31T04:44:01;18.00;99.90
27858;DHT22;16852;51.446;6.528;2023-07-31T04:46:04;17.90;99.90
27858;DHT22;16852;51.446;6.528;2023-07-31T04:48:05;18.00;99.90
27858;DHT22;16852;51.446;6.528;2023-07-31T04:50:05;18.00;99.90
27858;DHT22;16852;51.446;6.528;2023-07-31T04:52:06;18.00;99.90
27858;DHT22;16852;51.446;6.528;2023-07-31T04:54:07;18.00;99.90
27858;DHT22;16852;51.446;6.528;2023-07-31T04:56:07;18.00;99.90
27858;DHT22;16852;51.446;6.528;2023-07-31T04:58:08;18.00;99.90
27858;DHT22;16852;51.446;6.528;2023-07-31T05:00:09;18.00;99.90
27858;DHT22;16852;51.446;6.528;2023-07-31T05:02:12;18.00;99.90
27858;DHT22;16852;51.446;6.528;2023-07-31T05:04:14;18.00;99.90
27858;DHT22;16852;51.446;6.528;2023-07-31T05:06:15;18.00;99.90
27858;DHT22;16852;51.446;6.528;2023-07-31T05:08:16;18.00;99.90
27858;DHT22;16852;51.446;6.528;2023-07-31T05:10:17;18.00;99.90
27858;DHT22;16852;51.446;6.528;2023-07-31T05:12:18;18.00;99.90
27858;DHT22;16852;51.446;6.528;2023-07-31T05:14:19;18.00;99.90
27858;DHT22;16852;51.446;6.528;2023-07-31T05:16:20;18.00;99.90
27858;DHT22;16852;51.446;6.528;2023-07-31T05:18:21;18.10;99.90
27858;DHT22;16852;51.446;6.528;2023-07-31T05:20:21;18.10;99.90
27858;DHT22;16852;51.446;6.528;2023-07-31T05:22:22;18.10;99.90
27858;DHT22;16852;51.446;6.528;2023-07-31T05:24:23;18.10;99.90
27858;DHT22;16852;51.446;6.528;2023-07-31T05:26:23;18.10;99.90
27858;DHT22;16852;51.446;6.528;2023-07-31T05:28:24;18.10;99.90
27858;DHT22;16852;51.446;6.528;2023-07-31T05:30:25;18.10;99.90
27858;DHT22;16852;51.446;6.528;2023-07-31T05:32:25;18.10;99.90
27858;DHT22;16852;51.446;6.528;2023-07-31T05:34:26;18.10;99.90
27858;DHT22;16852;51.446;6.528;2023-07-31T05:36:26;18.10;99.90
27858;DHT22;16852;51.446;6.528;2023-07-31T05:38:27;18.10;99.90
27858;DHT22;16852;51.446;6.528;2023-07-31T05:40:28;18.10;99.90
27858;DHT22;16852;51.446;6.528;2023-07-31T05:42:28;18.10;99.90
27858;DHT22;16852;51.446;6.528;2023-07-31T05:44:29;18.10;99.90
27858;DHT22;16852;51.446;6.528;2023-07-31T05:46:29;18.10;99.90
27858;DHT22;16852;51.446;6.528;2023-07-31T05:48:31;18.10;99.90
27858;DHT22;16852;51.446;6.528;2023-07-31T05:50:32;18.10;99.90
27858;DHT22;16852;51.446;6.528;2023-07-31T05:52:32;18.10;99.90
27858;DHT22;16852;51.446;6.528;2023-07-31T05:54:33;18.10;99.90
27858;DHT22;16852;51.446;6.528;2023-07-31T05:56:34;18.10;99.90
27858;DHT22;16852;51.446;6.528;2023-07-31T05:58:34;18.10;99.90
27858;DHT22;16852;51.446;6.528;2023-07-31T06:00:35;18.20;99.90
27858;DHT22;16852;51.446;6.528;2023-07-31T06:02:36;18.10;99.90
27858;DHT22;16852;51.446;6.528;2023-07-31T06:04:37;18.20;99.90
27858;DHT22;16852;51.446;6.528;2023-07-31T06:06:38;18.10;99.90
27858;DHT22;16852;51.446;6.528;2023-07-31T06:08:38;18.20;99.90
27858;DHT22;16852;51.446;6.528;2023-07-31T06:10:40;18.20;99.90
27858;DHT22;16852;51.446;6.528;2023-07-31T06:12:40;18.20;99.90
27858;DHT22;16852;51.446;6.528;2023-07-31T06:14:41;18.10;99.90
27858;DHT22;16852;51.446;6.528;2023-07-31T06:16:42;18.10;99.90
27858;DHT22;16852;51.446;6.528;2023-07-31T06:18:44;18.10;99.90
27858;DHT22;16852;51.446;6.528;2023-07-31T06:20:45;18.10;99.90
27858;DHT22;16852;51.446;6.528;2023-07-31T06:22:45;18.10;99.90
27858;DHT22;16852;51.446;6.528;2023-07-31T06:24:46;18.10;99.90
27858;DHT22;16852;51.446;6.528;2023-07-31T06:26:47;18.10;99.90
27858;DHT22;16852;51.446;6.528;2023-07-31T06:28:47;18.10;99.90
27858;DHT22;16852;51.446;6.528;2023-07-31T06:30:48;18.00;99.90
27858;DHT22;16852;51.446;6.528;2023-07-31T06:32:48;18.00;99.90
27858;DHT22;16852;51.446;6.528;2023-07-31T06:34:49;18.10;99.90
27858;DHT22;16852;51.446;6.528;2023-07-31T06:36:50;18.00;99.90
27858;DHT22;16852;51.446;6.528;2023-07-31T06:38:51;18.00;99.90
27858;DHT22;16852;51.446;6.528;2023-07-31T06:40:52;18.00;99.90
27858;DHT22;16852;51.446;6.528;2023-07-31T06:42:52;18.00;99.90
27858;DHT22;16852;51.446;6.528;2023-07-31T06:44:53;18.00;99.90
27858;DHT22;16852;51.446;6.528;2023-07-31T06:46:53;18.00;99.90
27858;DHT22;16852;51.446;6.528;2023-07-31T06:48:54;18.00;99.90
27858;DHT22;16852;51.446;6.528;2023-07-31T06:50:55;18.00;99.90
27858;DHT22;16852;51.446;6.528;2023-07-31T06:52:56;17.90;99.90
27858;DHT22;16852;51.446;6.528;2023-07-31T06:55:18;17.90;99.90
27858;DHT22;16852;51.446;6.528;2023-07-31T06:57:19;17.90;99.90
27858;DHT22;16852;51.446;6.528;2023-07-31T06:59:20;17.90;99.90
27858;DHT22;16852;51.446;6.528;2023-07-31T07:01:21;17.80;99.90
27858;DHT22;16852;51.446;6.528;2023-07-31T07:03:21;17.90;99.90
27858;DHT22;16852;51.446;6.528;2023-07-31T07:05:22;17.80;99.90
27858;DHT22;16852;51.446;6.528;2023-07-31T07:07:22;17.80;99.90
27858;DHT22;16852;51.446;6.528;2023-07-31T07:09:23;17.80;99.90
27858;DHT22;16852;51.446;6.528;2023-07-31T07:11:24;17.80;99.90
27858;DHT22;16852;51.446;6.528;2023-07-31T07:13:24;17.80;99.90
27858;DHT22;16852;51.446;6.528;2023-07-31T07:15:25;17.80;99.90
27858;DHT22;16852;51.446;6.528;2023-07-31T07:17:27;17.80;99.90
27858;DHT22;16852;51.446;6.528;2023-07-31T07:19:27;17.80;99.90
27858;DHT22;16852;51.446;6.528;2023-07-31T07:21:28;17.80;99.90
27858;DHT22;16852;51.446;6.528;2023-07-31T07:23:29;17.70;99.90
27858;DHT22;16852;51.446;6.528;2023-07-31T07:25:29;17.70;99.90
27858;DHT22;16852;51.446;6.528;2023-07-31T07:27:30;17.70;99.90
27858;DHT22;16852;51.446;6.528;2023-07-31T07:29:30;17.70;99.90
27858;DHT22;16852;51.446;6.528;2023-07-31T07:31:31;17.70;99.90
27858;DHT22;16852;51.446;6.528;2023-07-31T07:33:32;17.70;99.90
27858;DHT22;16852;51.446;6.528;2023-07-31T07:35:36;17.60;99.90
27858;DHT22;16852;51.446;6.528;2023-07-31T07:37:36;17.60;99.90
27858;DHT22;16852;51.446;6.528;2023-07-31T07:39:37;17.60;99.90
27858;DHT22;16852;51.446;6.528;2023-07-31T07:41:37;17.50;99.90
27858;DHT22;16852;51.446;6.528;2023-07-31T07:43:38;17.50;99.90
27858;DHT22;16852;51.446;6.528;2023-07-31T07:45:40;17.40;99.90
27858;DHT22;16852;51.446;6.528;2023-07-31T07:47:41;17.40;99.90
27858;DHT22;16852;51.446;6.528;2023-07-31T07:49:41;17.50;99.90
27858;DHT22;16852;51.446;6.528;2023-07-31T07:51:42;17.40;99.90
27858;DHT22;16852;51.446;6.528;2023-07-31T07:53:42;17.40;99.90
27858;DHT22;16852;51.446;6.528;2023-07-31T07:55:43;17.40;99.90
27858;DHT22;16852;51.446;6.528;2023-07-31T07:57:44;17.40;99.90
27858;DHT22;16852;51.446;6.528;2023-07-31T07:59:45;17.40;99.90
27858;DHT22;16852;51.446;6.528;2023-07-31T08:01:45;17.40;99.90
27858;DHT22;16852;51.446;6.528;2023-07-31T08:03:47;17.40;99.90
27858;DHT22;16852;51.446;6.528;2023-07-31T08:05:47;17.30;99.90
27858;DHT22;16852;51.446;6.528;2023-07-31T08:07:48;17.40;99.90
27858;DHT22;16852;51.446;6.528;2023-07-31T08:09:49;17.30;99.90
27858;DHT22;16852;51.446;6.528;2023-07-31T08:11:49;17.30;99.90
27858;DHT22;16852;51.446;6.528;2023-07-31T08:13:50;17.40;99.90
27858;DHT22;16852;51.446;6.528;2023-07-31T08:15:50;17.40;99.90
27858;DHT22;16852;51.446;6.528;2023-07-31T08:17:51;17.40;99.90
27858;DHT22;16852;51.446;6.528;2023-07-31T08:19:52;17.40;99.90
27858;DHT22;16852;51.446;6.528;2023-07-31T08:21:52;17.40;99.90
27858;DHT22;16852;51.446;6.528;2023-07-31T08:23:53;17.40;99.90
27858;DHT22;16852;51.446;6.528;2023-07-31T08:25:53;17.40;99.90
27858;DHT22;16852;51.446;6.528;2023-07-31T08:27:54;17.40;99.90
27858;DHT22;16852;51.446;6.528;2023-07-31T08:29:54;17.50;99.90
27858;DHT22;16852;51.446;6.528;2023-07-31T08:31:55;17.50;99.90
27858;DHT22;16852;51.446;6.528;2023-07-31T08:33:56;17.40;99.90
27858;DHT22;16852;51.446;6.528;2023-07-31T08:35:56;17.50;99.90
27858;DHT22;16852;51.446;6.528;2023-07-31T08:37:57;17.40;99.90
27858;DHT22;16852;51.446;6.528;2023-07-31T08:39:58;17.40;99.90
27858;DHT22;16852;51.446;6.528;2023-07-31T08:41:59;17.40;99.90
27858;DHT22;16852;51.446;6.528;2023-07-31T08:44:00;17.40;99.90
27858;DHT22;16852;51.446;6.528;2023-07-31T08:46:02;17.40;99.90
27858;DHT22;16852;51.446;6.528;2023-07-31T08:48:03;17.40;99.90
27858;DHT22;16852;51.446;6.528;2023-07-31T08:50:05;17.50;99.90
27858;DHT22;16852;51.446;6.528;2023-07-31T08:52:07;17.50;99.90
27858;DHT22;16852;51.446;6.528;2023-07-31T08:54:07;17.50;99.90
27858;DHT22;16852;51.446;6.528;2023-07-31T08:56:08;17.60;99.90
27858;DHT22;16852;51.446;6.528;2023-07-31T08:58:10;17.60;99.90
27858;DHT22;16852;51.446;6.528;2023-07-31T09:00:13;17.50;99.90
27858;DHT22;16852;51.446;6.528;2023-07-31T09:02:15;17.60;99.90
27858;DHT22;16852;51.446;6.528;2023-07-31T09:04:18;17.60;99.90
27858;DHT22;16852;51.446;6.528;2023-07-31T09:06:20;17.60;99.90
27858;DHT22;16852;51.446;6.528;2023-07-31T09:08:26;17.60;99.90
27858;DHT22;16852;51.446;6.528;2023-07-31T09:10:30;17.70;99.90
27858;DHT22;16852;51.446;6.528;2023-07-31T09:12:31;17.60;99.90
27858;DHT22;16852;51.446;6.528;2023-07-31T09:14:32;17.70;99.90
27858;DHT22;16852;51.446;6.528;2023-07-31T09:16:34;17.70;99.90
27858;DHT22;16852;51.446;6.528;2023-07-31T09:18:53;17.70;99.90
27858;DHT22;16852;51.446;6.528;2023-07-31T09:21:03;17.80;99.90
27858;DHT22;16852;51.446;6.528;2023-07-31T09:23:07;17.80;99.90
27858;DHT22;16852;51.446;6.528;2023-07-31T09:25:26;17.80;99.90
27858;DHT22;16852;51.446;6.528;2023-07-31T09:27:26;17.80;99.90
27858;DHT22;16852;51.446;6.528;2023-07-31T09:29:28;17.80;99.90
27858;DHT22;16852;51.446;6.528;2023-07-31T09:31:40;17.80;99.90
27858;DHT22;16852;51.446;6.528;2023-07-31T09:33:54;17.80;99.90
27858;DHT22;16852;51.446;6.528;2023-07-31T09:35:58;17.90;99.90
27858;DHT22;16852;51.446;6.528;2023-07-31T09:38:03;17.80;99.90
27858;DHT22;16852;51.446;6.528;2023-07-31T09:40:05;17.90;99.90
27858;DHT22;16852;51.446;6.528;2023-07-31T09:42:06;17.90;99.90
27858;DHT22;16852;51.446;6.528;2023-07-31T09:44:07;17.80;99.90
27858;DHT22;16852;51.446;6.528;2023-07-31T09:46:13;17.90;99.90
27858;DHT22;16852;51.446;6.528;2023-07-31T09:48:17;17.90;99.90
27858;DHT22;16852;51.446;6.528;2023-07-31T09:50:22;17.90;99.90
27858;DHT22;16852;51.446;6.528;2023-07-31T09:52:26;18.00;99.90
27858;DHT22;16852;51.446;6.528;2023-07-31T09:54:27;17.90;99.90
27858;DHT22;16852;51.446;6.528;2023-07-31T09:56:28;18.00;99.90
27858;DHT22;16852;51.446;6.528;2023-07-31T09:58:29;18.00;99.90
27858;DHT22;16852;51.446;6.528;2023-07-31T10:00:32;18.00;99.90
27858;DHT22;16852;51.446;6.528;2023-07-31T10:02:33;18.00;99.90
27858;DHT22;16852;51.446;6.528;2023-07-31T10:04:34;18.00;99.90
27858;DHT22;16852;51.446;6.528;2023-07-31T10:06:35;18.00;99.90
27858;DHT22;16852;51.446;6.528;2023-07-31T10:08:37;18.10;99.90
27858;DHT22;16852;51.446;6.528;2023-07-31T10:10:41;18.10;99.90
27858;DHT22;16852;51.446;6.528;2023-07-31T10:12:43;18.00;99.90
27858;DHT22;16852;51.446;6.528;2023-07-31T10:14:45;18.00;99.90
27858;DHT22;16852;51.446;6.528;2023-07-31T10:16:47;18.00;99.90
27858;DHT22;16852;51.446;6.528;2023-07-31T10:18:49;18.00;99.90
27858;DHT22;16852;51.446;6.528;2023-07-31T10:20:50;18.10;99.90
27858;DHT22;16852;51.446;6.528;2023-07-31T10:22:52;18.10;99.90
27858;DHT22;16852;51.446;6.528;2023-07-31T10:24:55;18.10;99.90
27858;DHT22;16852;51.446;6.528;2023-07-31T10:26:58;18.20;99.90
27858;DHT22;16852;51.446;6.528;2023-07-31T10:29:00;18.20;99.90
27858;DHT22;16852;51.446;6.528;2023-07-31T10:31:03;18.20;99.90
27858;DHT22;16852;51.446;6.528;2023-07-31T10:33:05;18.30;99.90
27858;DHT22;16852;51.446;6.528;2023-07-31T10:35:07;18.30;99.90
27858;DHT22;16852;51.446;6.528;2023-07-31T10:37:28;18.40;99.90
27858;DHT22;16852;51.446;6.528;2023-07-31T10:39:36;18.40;99.90
27858;DHT22;16852;51.446;6.528;2023-07-31T10:41:38;18.40;99.90
27858;DHT22;16852;51.446;6.528;2023-07-31T10:43:39;18.40;99.90
27858;DHT22;16852;51.446;6.528;2023-07-31T10:45:42;18.40;99.90
27858;DHT22;16852;51.446;6.528;2023-07-31T10:47:44;18.40;99.90
27858;DHT22;16852;51.446;6.528;2023-07-31T10:49:46;18.40;99.90
27858;DHT22;16852;51.446;6.528;2023-07-31T10:51:47;18.40;99.90
27858;DHT22;16852;51.446;6.528;2023-07-31T10:53:48;18.40;99.90
27858;DHT22;16852;51.446;6.528;2023-07-31T10:55:49;18.40;99.90
27858;DHT22;16852;51.446;6.528;2023-07-31T10:57:55;18.40;99.90
27858;DHT22;16852;51.446;6.528;2023-07-31T11:00:24;18.40;99.90
27858;DHT22;16852;51.446;6.528;2023-07-31T11:02:26;18.40;99.90
27858;DHT22;16852;51.446;6.528;2023-07-31T11:04:28;18.50;99.90
27858;DHT22;16852;51.446;6.528;2023-07-31T11:06:29;18.50;99.90
27858;DHT22;16852;51.446;6.528;2023-07-31T11:08:32;18.50;99.90
27858;DHT22;16852;51.446;6.528;2023-07-31T11:10:33;18.50;99.90
27858;DHT22;16852;51.446;6.528;2023-07-31T11:12:34;18.50;99.90
27858;DHT22;16852;51.446;6.528;2023-07-31T11:14:34;18.50;99.90
27858;DHT22;16852;51.446;6.528;2023-07-31T11:16:35;18.50;99.90
27858;DHT22;16852;51.446;6.528;2023-07-31T11:18:47;18.50;99.90
27858;DHT22;16852;51.446;6.528;2023-07-31T11:20:48;18.50;99.90
27858;DHT22;16852;51.446;6.528;2023-07-31T11:22:49;18.50;99.90
27858;DHT22;16852;51.446;6.528;2023-07-31T11:24:50;18.60;99.90
27858;DHT22;16852;51.446;6.528;2023-07-31T11:26:53;18.60;99.90
27858;DHT22;16852;51.446;6.528;2023-07-31T11:28:54;18.50;99.90
27858;DHT22;16852;51.446;6.528;2023-07-31T11:30:55;18.50;99.90
27858;DHT22;16852;51.446;6.528;2023-07-31T11:32:56;18.50;99.90
27858;DHT22;16852;51.446;6.528;2023-07-31T11:34:57;18.50;99.90
27858;DHT22;16852;51.446;6.528;2023-07-31T11:36:57;18.50;99.90
27858;DHT22;16852;51.446;6.528;2023-07-31T11:39:09;18.50;99.90
27858;DHT22;16852;51.446;6.528;2023-07-31T11:41:10;18.50;99.90
27858;DHT22;16852;51.446;6.528;2023-07-31T11:43:10;18.60;99.90
27858;DHT22;16852;51.446;6.528;2023-07-31T11:45:17;18.60;99.90
27858;DHT22;16852;51.446;6.528;2023-07-31T11:47:18;18.60;99.90
27858;DHT22;16852;51.446;6.528;2023-07-31T11:49:18;18.70;99.90
27858;DHT22;16852;51.446;6.528;2023-07-31T11:51:20;18.60;99.90
27858;DHT22;16852;51.446;6.528;2023-07-31T11:53:29;18.70;99.90
27858;DHT22;16852;51.446;6.528;2023-07-31T11:55:31;18.70;99.90
27858;DHT22;16852;51.446;6.528;2023-07-31T11:57:33;18.60;99.90
27858;DHT22;16852;51.446;6.528;2023-07-31T11:59:33;18.60;99.90
27858;DHT22;16852;51.446;6.528;2023-07-31T12:01:34;18.60;99.90
27858;DHT22;16852;51.446;6.528;2023-07-31T12:03:35;18.60;99.90
27858;DHT22;16852;51.446;6.528;2023-07-31T12:05:37;18.60;99.90
27858;DHT22;16852;51.446;6.528;2023-07-31T12:07:49;18.60;99.90
27858;DHT22;16852;51.446;6.528;2023-07-31T12:09:55;18.70;99.90
27858;DHT22;16852;51.446;6.528;2023-07-31T12:11:56;18.70;99.90
27858;DHT22;16852;51.446;6.528;2023-07-31T12:13:57;18.80;99.90
27858;DHT22;16852;51.446;6.528;2023-07-31T12:15:59;18.80;99.90
27858;DHT22;16852;51.446;6.528;2023-07-31T12:18:04;18.90;99.90
27858;DHT22;16852;51.446;6.528;2023-07-31T12:20:05;18.90;99.90
27858;DHT22;16852;51.446;6.528;2023-07-31T12:22:15;19.00;99.90
27858;DHT22;16852;51.446;6.528;2023-07-31T12:24:19;19.00;99.90
27858;DHT22;16852;51.446;6.528;2023-07-31T12:26:19;19.10;99.90
27858;DHT22;16852;51.446;6.528;2023-07-31T12:28:22;19.10;99.90
27858;DHT22;16852;51.446;6.528;2023-07-31T12:30:31;19.10;99.90
27858;DHT22;16852;51.446;6.528;2023-07-31T12:32:32;19.10;99.90
27858;DHT22;16852;51.446;6.528;2023-07-31T12:34:42;19.10;99.90
27858;DHT22;16852;51.446;6.528;2023-07-31T12:36:42;19.10;99.90
27858;DHT22;16852;51.446;6.528;2023-07-31T12:38:44;19.20;99.90
27858;DHT22;16852;51.446;6.528;2023-07-31T12:40:45;19.20;99.90
27858;DHT22;16852;51.446;6.528;2023-07-31T12:42:45;19.20;99.90
27858;DHT22;16852;51.446;6.528;2023-07-31T12:44:47;19.20;99.90
27858;DHT22;16852;51.446;6.528;2023-07-31T12:46:48;19.20;99.90
27858;DHT22;16852;51.446;6.528;2023-07-31T12:48:48;19.20;99.90
27858;DHT22;16852;51.446;6.528;2023-07-31T12:50:49;19.20;99.90
27858;DHT22;16852;51.446;6.528;2023-07-31T12:52:50;19.10;99.90